createdAt,value
2023-03-24T00:02:03.363Z,3.33
2023-03-24T00:04:30.345Z,3.40
2023-03-24T00:07:03.442Z,4.20
2023-03-24T00:09:31.099Z,3.03
2023-03-24T00:12:04.452Z,3.60
2023-03-24T00:14:31.648Z,3.30
2023-03-24T00:17:13.409Z,3.40
2023-03-24T00:19:47.445Z,3.65
2023-03-24T00:22:18.290Z,3.58
2023-03-24T00:24:54.420Z,3.25
2023-03-24T00:27:29.445Z,3.88
2023-03-24T00:29:59.349Z,3.42
2023-03-24T00:32:36.498Z,3.22
2023-03-24T00:35:11.399Z,2.90
2023-03-24T00:37:45.457Z,3.70
2023-03-24T00:40:24.515Z,3.13
2023-03-24T00:42:58.496Z,3.58
2023-03-24T00:45:25.463Z,3.75
2023-03-24T00:47:57.947Z,3.65
2023-03-24T00:50:32.500Z,3.30
2023-03-24T00:53:08.471Z,3.40
2023-03-24T00:55:37.828Z,3.70
2023-03-24T00:58:11.492Z,3.28
2023-03-24T01:00:42.581Z,3.20
2023-03-24T01:03:16.581Z,3.07
2023-03-24T01:05:55.472Z,3.38
2023-03-24T01:08:32.477Z,4.00
2023-03-24T01:11:01.404Z,3.85
2023-03-24T01:13:36.507Z,4.32
2023-03-24T01:16:03.388Z,4.32
2023-03-24T01:18:36.504Z,3.65
2023-03-24T01:21:03.350Z,3.33
2023-03-24T01:23:31.050Z,3.47
2023-03-24T01:26:04.567Z,3.78
2023-03-24T01:28:38.495Z,3.53
2023-03-24T01:31:06.037Z,4.20
2023-03-24T01:33:32.929Z,3.78
2023-03-24T01:36:13.569Z,3.60
2023-03-24T01:38:47.625Z,3.97
2023-03-24T01:41:20.576Z,3.80
2023-03-24T01:43:53.574Z,4.22
2023-03-24T01:46:22.758Z,3.60
2023-03-24T01:49:08.564Z,3.60
2023-03-24T01:51:39.110Z,4.30
2023-03-24T01:54:17.541Z,3.90
2023-03-24T01:56:54.162Z,4.45
2023-03-24T01:59:33.534Z,4.20
2023-03-24T02:02:03.716Z,3.95
2023-03-24T02:04:52.617Z,3.75
2023-03-24T02:07:32.636Z,4.15
2023-03-24T02:10:11.604Z,4.45
2023-03-24T02:12:38.922Z,4.50
2023-03-24T02:15:06.793Z,4.15
2023-03-24T02:18:00.613Z,3.95
2023-03-24T02:20:52.758Z,3.30
2023-03-24T02:23:31.627Z,2.40
2023-03-24T02:26:30.564Z,2.28
2023-03-24T02:29:03.762Z,1.90
2023-03-24T02:31:44.804Z,1.77
2023-03-24T02:34:23.685Z,1.65
2023-03-24T02:37:08.667Z,1.40
2023-03-24T02:39:54.231Z,1.33
2023-03-24T02:42:30.626Z,1.27
2023-03-24T02:45:16.548Z,1.38
2023-03-24T02:48:23.674Z,1.30
2023-03-24T02:51:27.628Z,1.23
2023-03-24T02:54:08.483Z,1.40
2023-03-24T02:57:07.738Z,1.48
2023-03-24T02:59:39.239Z,1.27
2023-03-24T03:02:26.702Z,1.45
2023-03-24T03:05:27.785Z,1.40
2023-03-24T03:08:01.089Z,1.38
2023-03-24T03:10:39.695Z,1.52
2023-03-24T03:13:13.816Z,1.45
2023-03-24T03:15:52.700Z,1.70
2023-03-24T03:18:32.091Z,1.40
2023-03-24T03:21:14.686Z,1.63
2023-03-24T03:26:22.855Z,2.58
2023-03-24T03:28:58.183Z,1.88
2023-03-24T03:31:36.798Z,1.80
2023-03-24T03:34:42.765Z,1.83
2023-03-24T03:37:30.740Z,1.85
2023-03-24T03:40:21.741Z,2.22
2023-03-24T03:42:48.923Z,2.30
2023-03-24T03:45:22.716Z,2.47
2023-03-24T03:47:57.204Z,2.47
2023-03-24T03:50:30.739Z,2.78
2023-03-24T03:53:03.758Z,2.95
2023-03-24T03:55:38.204Z,3.25
2023-03-24T03:58:12.778Z,3.55
2023-03-24T04:00:46.805Z,3.00
2023-03-24T04:03:48.838Z,2.65
2023-03-24T04:06:29.650Z,2.57
2023-03-24T04:09:16.820Z,2.22
2023-03-24T04:11:58.771Z,2.35
2023-03-24T04:14:52.799Z,2.67
2023-03-24T04:17:45.560Z,3.17
2023-03-24T04:20:30.808Z,2.72
2023-03-24T04:23:05.324Z,2.70
2023-03-24T04:25:43.990Z,3.35
2023-03-24T04:28:38.550Z,3.38
2023-03-24T04:31:40.858Z,2.92
2023-03-24T04:34:22.213Z,3.17
2023-03-24T04:37:21.087Z,2.38
2023-03-24T04:39:49.690Z,3.72
2023-03-24T04:42:38.820Z,2.60
2023-03-24T04:45:07.025Z,3.30
2023-03-24T04:47:49.868Z,3.10
2023-03-24T04:50:37.444Z,3.60
2023-03-24T04:53:11.849Z,3.50
2023-03-24T04:56:13.501Z,3.60
2023-03-24T04:58:47.280Z,3.03
2023-03-24T05:01:17.175Z,3.10
2023-03-24T05:03:45.902Z,2.90
2023-03-24T05:06:19.877Z,3.40
2023-03-24T05:08:59.887Z,3.53
2023-03-24T05:11:33.931Z,3.50
2023-03-24T05:14:04.563Z,3.10
2023-03-24T05:16:31.565Z,3.70
2023-03-24T05:19:04.878Z,4.25
2023-03-24T05:21:39.899Z,3.38
2023-03-24T05:24:06.936Z,3.42
2023-03-24T05:26:47.904Z,3.38
2023-03-24T05:29:14.692Z,4.25
2023-03-24T05:31:53.936Z,3.58
2023-03-24T05:34:31.557Z,3.63
2023-03-24T05:37:04.906Z,3.97
2023-03-24T05:39:32.578Z,4.20
2023-03-24T05:41:59.369Z,3.67
2023-03-24T05:44:32.926Z,4.25
2023-03-24T05:47:06.935Z,3.63
2023-03-24T05:49:34.807Z,4.43
2023-03-24T05:52:02.349Z,3.90
2023-03-24T05:54:35.943Z,3.97
2023-03-24T05:57:03.266Z,4.47
2023-03-24T05:59:36.952Z,4.10
2023-03-24T06:02:09.224Z,3.72
2023-03-24T06:04:36.807Z,3.80
2023-03-24T06:07:10.999Z,3.63
2023-03-24T06:09:40.843Z,4.60
2023-03-24T06:12:08.782Z,4.13
2023-03-24T06:14:43.273Z,3.38
2023-03-24T06:17:21.661Z,4.13
2023-03-24T06:19:58.053Z,3.88
2023-03-24T06:22:26.197Z,4.45
2023-03-24T06:24:53.896Z,3.38
2023-03-24T06:27:37.062Z,3.88
2023-03-24T06:30:04.930Z,3.75
2023-03-24T06:32:49.052Z,3.60
2023-03-24T06:35:17.393Z,4.55
2023-03-24T06:37:44.822Z,4.00
2023-03-24T06:40:22.359Z,3.30
2023-03-24T06:42:52.481Z,3.97
2023-03-24T06:45:19.295Z,3.65
2023-03-24T06:47:53.248Z,4.97
2023-03-24T06:50:20.068Z,4.18
2023-03-24T06:52:46.842Z,4.72
2023-03-24T06:55:20.096Z,4.32
2023-03-24T06:57:47.072Z,4.63
2023-03-24T07:00:21.068Z,4.35
2023-03-24T07:02:58.732Z,3.80
2023-03-24T07:05:32.083Z,4.00
2023-03-24T07:10:35.060Z,3.90
2023-03-24T07:13:03.214Z,3.67
2023-03-24T07:15:37.182Z,3.38
2023-03-24T07:18:04.333Z,3.33
2023-03-24T07:20:31.927Z,3.55
2023-03-24T07:23:05.139Z,4.03
2023-03-24T07:25:39.103Z,3.47
2023-03-24T07:28:08.411Z,3.33
2023-03-24T07:30:43.124Z,3.28
2023-03-24T07:33:19.132Z,3.58
2023-03-24T07:35:52.247Z,3.10
2023-03-24T07:38:19.048Z,3.30
2023-03-24T07:40:52.129Z,3.40
2023-03-24T07:43:18.950Z,3.13
2023-03-24T07:45:53.180Z,3.80
2023-03-24T07:48:20.054Z,3.25
2023-03-24T07:50:53.101Z,3.38
2023-03-24T07:53:26.174Z,3.20
2023-03-24T07:55:53.048Z,3.58
2023-03-24T07:58:30.111Z,2.90
2023-03-24T08:00:56.867Z,2.92
2023-03-24T08:03:32.646Z,3.63
2023-03-24T08:06:00.211Z,3.35
2023-03-24T08:08:28.147Z,4.07
2023-03-24T08:11:01.433Z,3.45
2023-03-24T08:13:28.748Z,3.00
2023-03-24T08:15:55.607Z,2.90
2023-03-24T08:18:31.513Z,3.20
2023-03-24T08:20:59.367Z,3.55
2023-03-24T08:23:26.295Z,3.50
2023-03-24T08:26:00.215Z,3.33
2023-03-24T08:28:27.096Z,3.22
2023-03-24T08:30:53.997Z,3.80
2023-03-24T08:33:27.319Z,4.20
2023-03-24T08:35:57.655Z,4.22
2023-03-24T08:38:37.398Z,3.83
2023-03-24T08:41:06.642Z,3.72
2023-03-24T08:43:36.275Z,3.28
2023-03-24T08:46:12.460Z,3.40
2023-03-24T08:48:41.191Z,3.05
2023-03-24T08:51:20.247Z,3.15
2023-03-24T08:53:53.224Z,3.47
2023-03-24T08:56:20.839Z,3.38
2023-03-24T08:58:48.696Z,3.40
2023-03-24T09:01:22.272Z,3.42
2023-03-24T09:03:49.826Z,4.00
2023-03-24T09:06:16.738Z,3.47
2023-03-24T09:08:50.283Z,3.55
2023-03-24T09:11:26.355Z,3.45
2023-03-24T09:13:53.722Z,3.65
2023-03-24T09:16:20.568Z,3.72
2023-03-24T09:18:54.301Z,3.00
2023-03-24T09:21:34.582Z,3.33
2023-03-24T09:24:01.595Z,3.42
2023-03-24T09:26:28.497Z,3.53
2023-03-24T09:29:08.302Z,3.47
2023-03-24T09:31:35.352Z,3.97
2023-03-24T09:34:04.324Z,3.78
2023-03-24T09:36:38.338Z,3.17
2023-03-24T09:39:05.192Z,3.20
2023-03-24T09:41:39.444Z,3.17
2023-03-24T09:44:21.767Z,2.40
2023-03-24T09:47:30.622Z,2.78
2023-03-24T09:50:06.998Z,3.53
2023-03-24T09:52:49.665Z,3.10
2023-03-24T09:55:22.617Z,2.83
2023-03-24T09:57:58.413Z,2.80
2023-03-24T10:00:28.206Z,3.30
2023-03-24T10:03:08.378Z,3.50
2023-03-24T10:05:52.405Z,2.60
2023-03-24T10:08:28.993Z,2.65
2023-03-24T10:11:31.378Z,3.00
2023-03-24T10:14:35.703Z,3.20
2023-03-24T10:17:52.423Z,3.13
2023-03-24T10:20:26.176Z,3.03
2023-03-24T10:23:20.406Z,2.90
2023-03-24T10:26:24.634Z,3.05
2023-03-24T10:29:11.439Z,2.70
2023-03-24T10:31:39.096Z,3.35
2023-03-24T10:34:18.376Z,2.67
2023-03-24T10:36:45.921Z,2.50
2023-03-24T10:39:31.281Z,2.92
2023-03-24T10:42:32.729Z,2.78
2023-03-24T10:44:59.909Z,2.72
2023-03-24T10:47:32.844Z,2.25
2023-03-24T10:50:12.777Z,2.83
2023-03-24T10:52:43.808Z,3.05
2023-03-24T10:55:23.477Z,2.83
2023-03-24T10:57:56.831Z,3.20
2023-03-24T11:00:40.445Z,3.08
2023-03-24T11:03:29.646Z,3.20
2023-03-24T11:06:02.165Z,3.40
2023-03-24T11:08:40.462Z,3.08
2023-03-24T11:11:26.240Z,3.45
2023-03-24T11:14:05.681Z,3.40
2023-03-24T11:16:43.540Z,2.88
2023-03-24T11:19:28.428Z,3.10
2023-03-24T11:22:09.070Z,2.95
2023-03-24T11:24:38.373Z,2.70
2023-03-24T11:27:06.105Z,3.40
2023-03-24T11:29:44.480Z,3.22
2023-03-24T11:32:17.332Z,2.83
2023-03-24T11:34:59.507Z,2.92
2023-03-24T11:37:30.805Z,2.70
2023-03-24T11:40:18.602Z,2.90
2023-03-24T11:43:04.218Z,2.33
2023-03-24T11:45:43.449Z,2.30
2023-03-24T11:48:28.512Z,3.20
2023-03-24T11:50:57.666Z,2.47
2023-03-24T11:53:38.484Z,2.33
2023-03-24T11:56:45.697Z,2.70
2023-03-24T11:59:21.323Z,2.33
2023-03-24T12:02:08.557Z,2.38
2023-03-24T12:04:44.292Z,1.63
2023-03-24T12:07:36.548Z,2.20
2023-03-24T12:10:18.691Z,1.77
2023-03-24T12:13:06.816Z,1.60
2023-03-24T12:16:11.866Z,1.85
2023-03-24T12:19:06.646Z,1.60
2023-03-24T12:22:15.201Z,1.67
2023-03-24T12:24:54.503Z,2.20
2023-03-24T12:27:52.437Z,1.90
2023-03-24T12:31:09.603Z,2.20
2023-03-24T12:34:09.548Z,1.83
2023-03-24T12:36:49.147Z,1.77
2023-03-24T12:39:33.632Z,1.88
2023-03-24T12:42:23.210Z,2.15
2023-03-24T12:45:24.619Z,2.05
2023-03-24T12:47:54.529Z,1.88
2023-03-24T12:50:40.589Z,2.05
2023-03-24T12:53:26.211Z,2.30
2023-03-24T12:56:06.618Z,1.98
2023-03-24T12:58:42.893Z,1.90
2023-03-24T13:01:41.599Z,1.90
2023-03-24T13:04:27.565Z,2.03
2023-03-24T13:07:06.534Z,2.00
2023-03-24T13:10:02.654Z,2.15
2023-03-24T13:12:41.980Z,2.25
2023-03-24T13:15:19.676Z,2.33
2023-03-24T13:18:18.649Z,2.63
2023-03-24T13:21:00.102Z,2.53
2023-03-24T13:23:50.649Z,2.42
2023-03-24T13:26:17.505Z,2.00
2023-03-24T13:29:01.648Z,2.05
2023-03-24T13:31:36.768Z,2.20
2023-03-24T13:34:16.666Z,2.25
2023-03-24T13:36:50.685Z,2.33
2023-03-24T13:39:27.676Z,2.15
2023-03-24T13:41:58.018Z,2.45
2023-03-24T13:44:45.686Z,2.15
2023-03-24T13:47:18.314Z,1.98
2023-03-24T13:50:10.666Z,2.40
2023-03-24T13:52:45.076Z,2.40
2023-03-24T13:55:36.707Z,2.25
2023-03-24T13:58:15.611Z,2.17
2023-03-24T14:01:22.715Z,2.15
2023-03-24T14:04:33.697Z,2.25
2023-03-24T14:07:36.744Z,1.70
2023-03-24T14:10:29.731Z,1.40
2023-03-24T14:12:59.715Z,1.50
2023-03-24T14:15:38.745Z,1.52
2023-03-24T14:18:24.030Z,1.52
2023-03-24T14:21:03.784Z,2.00
2023-03-24T14:23:47.038Z,1.50
2023-03-24T14:26:26.776Z,1.85
2023-03-24T14:28:55.221Z,1.40
2023-03-24T14:31:30.918Z,1.70
2023-03-24T14:34:08.777Z,1.60
2023-03-24T14:36:42.021Z,1.67
2023-03-24T14:39:33.736Z,1.55
2023-03-24T14:42:54.729Z,1.77
2023-03-24T14:45:38.615Z,1.90
2023-03-24T14:48:27.730Z,2.28
2023-03-24T14:51:04.834Z,1.83
2023-03-24T14:53:37.781Z,2.22
2023-03-24T14:56:14.825Z,1.98
2023-03-24T14:58:44.313Z,1.83
2023-03-24T15:01:18.814Z,1.45
2023-03-24T15:04:13.969Z,1.73
2023-03-24T15:06:48.767Z,1.93
2023-03-24T15:09:23.797Z,1.73
2023-03-24T15:11:52.064Z,1.70
2023-03-24T15:14:31.798Z,1.90
2023-03-24T15:17:22.927Z,1.77
2023-03-24T15:19:54.734Z,2.13
2023-03-24T15:22:27.833Z,1.92
2023-03-24T15:24:58.297Z,2.25
2023-03-24T15:27:41.799Z,2.65
2023-03-24T15:30:15.927Z,3.35
2023-03-24T15:33:02.872Z,2.00
2023-03-24T15:35:40.919Z,1.95
2023-03-24T15:38:25.848Z,2.30
2023-03-24T15:40:59.426Z,2.83
2023-03-24T15:43:32.879Z,2.20
2023-03-24T15:46:11.580Z,2.28
2023-03-24T15:48:46.873Z,2.55
2023-03-24T15:51:15.151Z,2.40
2023-03-24T15:53:55.886Z,2.00
2023-03-24T15:56:34.933Z,2.20
2023-03-24T15:59:21.892Z,2.15
2023-03-24T16:01:50.393Z,2.03
2023-03-24T16:04:26.843Z,2.35
2023-03-24T16:06:54.701Z,2.15
2023-03-24T16:09:33.878Z,2.70
2023-03-24T16:12:11.329Z,2.15
2023-03-24T16:14:44.911Z,2.22
2023-03-24T16:17:11.683Z,2.50
2023-03-24T16:19:45.891Z,2.25
2023-03-24T16:22:14.426Z,2.85
2023-03-24T16:24:47.949Z,2.63
2023-03-24T16:27:23.888Z,2.22
2023-03-24T16:29:51.067Z,2.60
2023-03-24T16:32:23.927Z,2.50
2023-03-24T16:34:57.978Z,2.33
2023-03-24T16:37:24.884Z,2.35
2023-03-24T16:39:58.077Z,2.65
2023-03-24T16:42:26.371Z,2.70
2023-03-24T16:44:59.973Z,2.50
2023-03-24T16:47:26.872Z,1.77
2023-03-24T16:49:53.789Z,2.25
2023-03-24T16:52:27.942Z,2.83
2023-03-24T16:54:54.787Z,2.63
2023-03-24T16:57:21.566Z,2.65
2023-03-24T17:00:01.943Z,2.70
2023-03-24T17:02:35.150Z,2.33
2023-03-24T17:05:20.833Z,2.40
2023-03-24T17:08:02.228Z,2.03
2023-03-24T17:10:29.423Z,2.28
2023-03-24T17:12:56.703Z,1.90
2023-03-24T17:15:36.168Z,1.88
2023-03-24T17:18:09.896Z,2.13
2023-03-24T17:20:46.114Z,1.98
2023-03-24T17:23:16.116Z,2.30
2023-03-24T17:25:42.946Z,2.10
2023-03-24T17:28:23.108Z,2.05
2023-03-24T17:30:50.177Z,1.95
2023-03-24T17:33:23.997Z,2.40
2023-03-24T17:35:52.426Z,1.75
2023-03-24T17:38:19.422Z,2.03
2023-03-24T17:40:53.039Z,2.40
2023-03-24T17:43:19.945Z,2.38
2023-03-24T17:45:47.014Z,2.42
2023-03-24T17:48:20.070Z,2.67
2023-03-24T17:50:48.785Z,2.00
2023-03-24T17:53:33.072Z,2.45
2023-03-24T17:56:05.877Z,2.45
2023-03-24T17:58:41.319Z,2.45
2023-03-24T18:01:08.894Z,2.05
2023-03-24T18:03:37.880Z,2.80
2023-03-24T18:06:17.190Z,2.42
2023-03-24T18:08:44.487Z,2.50
2023-03-24T18:11:14.468Z,2.20
2023-03-24T18:13:48.139Z,2.72
2023-03-24T18:18:46.833Z,2.22
2023-03-24T18:21:20.083Z,2.17
2023-03-24T18:23:55.376Z,2.05
2023-03-24T18:26:23.370Z,2.40
2023-03-24T18:28:50.217Z,2.35
2023-03-24T18:31:27.341Z,2.50
2023-03-24T18:33:55.283Z,2.65
2023-03-24T18:36:26.341Z,2.67
2023-03-24T18:39:08.173Z,1.98
2023-03-24T18:41:45.143Z,1.67
2023-03-24T18:44:26.211Z,3.40
2023-03-24T18:47:06.092Z,3.17
2023-03-24T18:49:32.926Z,2.97
2023-03-24T18:52:08.344Z,2.45
2023-03-24T18:54:36.184Z,3.10
2023-03-24T18:57:03.288Z,3.13
2023-03-24T18:59:38.180Z,3.17
2023-03-24T19:02:11.674Z,2.50
2023-03-24T19:04:45.452Z,2.92
2023-03-24T19:07:24.545Z,1.98
2023-03-24T19:09:58.177Z,2.67
2023-03-24T19:12:24.975Z,2.33
2023-03-24T19:14:54.137Z,2.40
2023-03-24T19:17:28.274Z,2.45
2023-03-24T19:20:04.297Z,2.38
2023-03-24T19:22:31.188Z,2.30
2023-03-24T19:24:58.120Z,2.28
2023-03-24T19:27:35.299Z,1.95
2023-03-24T19:30:12.231Z,2.30
2023-03-24T19:32:39.401Z,2.40
2023-03-24T19:35:06.742Z,2.80
2023-03-24T19:37:40.264Z,2.15
2023-03-24T19:40:13.353Z,1.75
2023-03-24T19:42:48.292Z,1.80
2023-03-24T19:45:17.468Z,1.67
2023-03-24T19:47:46.128Z,1.90
2023-03-24T19:50:22.499Z,1.40
2023-03-24T19:52:49.760Z,1.58
2023-03-24T19:55:16.967Z,1.40
2023-03-24T19:57:50.273Z,1.70
2023-03-24T20:00:24.254Z,1.70
2023-03-24T20:02:57.527Z,1.50
2023-03-24T20:05:31.355Z,2.28
2023-03-24T20:08:03.033Z,2.00
2023-03-24T20:10:38.308Z,1.80
2023-03-24T20:13:05.451Z,1.77
2023-03-24T20:15:39.355Z,1.30
2023-03-24T20:18:09.967Z,1.65
2023-03-24T20:20:43.512Z,2.10
2023-03-24T20:23:10.721Z,1.95
2023-03-24T20:25:48.545Z,1.70
2023-03-24T20:28:22.402Z,1.73
2023-03-24T20:30:51.489Z,1.55
2023-03-24T20:33:25.309Z,1.85
2023-03-24T20:35:53.060Z,1.30
2023-03-24T20:38:27.402Z,1.58
2023-03-24T20:41:05.861Z,1.60
2023-03-24T20:43:44.407Z,1.83
2023-03-24T20:46:12.115Z,1.40
2023-03-24T20:48:45.406Z,1.63
2023-03-24T20:51:13.526Z,1.45
2023-03-24T20:53:48.540Z,1.40
2023-03-24T20:56:17.032Z,1.70
2023-03-24T20:58:56.462Z,1.70
2023-03-24T21:01:24.049Z,1.70
2023-03-24T21:04:08.360Z,2.00
2023-03-24T21:06:38.205Z,1.70
2023-03-24T21:09:12.427Z,1.88
2023-03-24T21:11:39.443Z,2.28
2023-03-24T21:14:13.422Z,1.63
2023-03-24T21:16:40.445Z,1.85
2023-03-24T21:19:16.411Z,2.13
2023-03-24T21:21:44.691Z,1.90
2023-03-24T21:24:13.295Z,2.50
2023-03-24T21:26:46.489Z,2.13
2023-03-24T21:29:13.535Z,1.73
2023-03-24T21:31:48.394Z,1.90
2023-03-24T21:34:15.502Z,2.15
2023-03-24T21:36:48.410Z,1.85
2023-03-24T21:39:16.492Z,2.30
2023-03-24T21:41:49.376Z,2.10
2023-03-24T21:44:16.158Z,2.15
2023-03-24T21:46:49.449Z,2.20
2023-03-24T21:49:22.763Z,2.00
2023-03-24T21:52:01.430Z,2.00
2023-03-24T21:54:28.481Z,2.15
2023-03-24T21:57:02.537Z,2.00
2023-03-24T21:59:37.671Z,1.92
2023-03-24T22:02:13.421Z,2.08
2023-03-24T22:04:41.684Z,2.20
2023-03-24T22:07:16.524Z,1.92
2023-03-24T22:09:43.895Z,1.85
2023-03-24T22:12:13.170Z,2.05
2023-03-24T22:14:47.496Z,1.92
2023-03-24T22:17:20.539Z,1.80
2023-03-24T22:19:47.466Z,2.20
2023-03-24T22:22:18.110Z,1.60
2023-03-24T22:24:51.471Z,1.77
2023-03-24T22:27:18.307Z,2.40
2023-03-24T22:29:51.754Z,1.95
2023-03-24T22:32:19.523Z,2.25
2023-03-24T22:34:46.634Z,2.15
2023-03-24T22:37:20.500Z,1.95
2023-03-24T22:39:47.256Z,1.80
2023-03-24T22:42:14.010Z,1.73
2023-03-24T22:44:47.552Z,1.40
2023-03-24T22:47:14.369Z,1.48
2023-03-24T22:49:48.489Z,1.70
2023-03-24T22:52:17.417Z,1.77
2023-03-24T22:54:44.668Z,1.83
2023-03-24T22:57:18.501Z,1.92
2023-03-24T22:59:51.555Z,1.80
2023-03-24T23:02:24.635Z,2.10
2023-03-24T23:04:58.626Z,1.77
2023-03-24T23:07:29.616Z,2.53
2023-03-24T23:10:05.608Z,1.90
2023-03-24T23:12:36.610Z,2.15
2023-03-24T23:15:11.580Z,2.28
2023-03-24T23:17:38.824Z,2.13
2023-03-24T23:20:14.569Z,2.22
2023-03-24T23:22:41.929Z,2.08
2023-03-24T23:25:09.968Z,2.90
2023-03-24T23:27:44.629Z,2.35
2023-03-24T23:30:13.164Z,2.70
2023-03-24T23:32:41.423Z,2.63
2023-03-24T23:35:15.766Z,2.10
2023-03-24T23:37:42.726Z,1.85
2023-03-24T23:40:15.458Z,2.22
2023-03-24T23:42:51.836Z,2.50
2023-03-24T23:45:20.389Z,2.53
2023-03-24T23:47:50.348Z,2.50
2023-03-24T23:50:25.623Z,2.40
2023-03-24T23:52:52.585Z,2.22
2023-03-24T23:55:20.994Z,2.33
2023-03-24T23:57:56.188Z,2.67
